Time;durP1;ratioP1;P1;durP2;ratioP2;P2;SDS_P1;SDS_P2;PMS_P1;PMS_P2;Temp;Humidity;BMP_temperature;BMP_pressure;BME280_temperature;BME280_humidity;BME280_pressure;Samples;Min_cycle;Max_cycle;Signal;HPM_P1;HPM_P2
2022/01/05 00:00:25;;;;;;;5.25;3.05;;;;;;;;;;359596;147;857691;-62
2022/01/05 00:01:27;;;;;;;5.19;3.67;;;;;;;;;;365646;147;859941;-61
2022/01/05 00:02:28;;;;;;;10.64;4.87;;;;;;;;;;360991;147;857382;-61
2022/01/05 00:03:30;;;;;;;9.15;4.30;;;;;;;;;;361540;145;857554;-62
2022/01/05 00:04:32;;;;;;;8.51;4.62;;;;;;;;;;362522;147;857374;-61
2022/01/05 00:05:33;;;;;;;7.05;4.25;;;;;;;;;;359149;147;866338;-60
2022/01/05 00:06:35;;;;;;;7.05;3.59;;;;;;;;;;360717;146;859089;-60
2022/01/05 00:07:36;;;;;;;6.48;3.94;;;;;;;;;;359538;147;857274;-60
2022/01/05 00:08:38;;;;;;;7.44;4.04;;;;;;;;;;362685;147;857174;-62
2022/01/05 00:09:39;;;;;;;7.38;4.78;;;;;;;;;;360631;147;864946;-60
2022/01/05 00:10:41;;;;;;;3.55;2.15;;;;;;;;;;360654;146;859241;-61
2022/01/05 00:11:43;;;;;;;5.73;3.04;;;;;;;;;;361445;147;857268;-61
2022/01/05 00:12:44;;;;;;;6.81;3.56;;;;;;;;;;361814;147;864764;-61
2022/01/05 00:13:46;;;;;;;9.31;4.01;;;;;;;;;;364070;146;858762;-61
2022/01/05 00:14:47;;;;;;;7.44;4.01;;;;;;;;;;359256;147;865393;-62
2022/01/05 00:15:49;;;;;;;8.03;3.81;;;;;;;;;;363719;147;859984;-61
2022/01/05 00:16:50;;;;;;;4.96;3.82;;;;;;;;;;355968;149;865774;-61
2022/01/05 00:17:52;;;;;;;6.08;3.66;;;;;;;;;;351898;152;866957;-60
2022/01/05 00:18:54;;;;;;;9.82;4.99;;;;;;;;;;362300;147;859704;-63
2022/01/05 00:19:55;;;;;;;9.24;4.83;;;;;;;;;;361052;147;856984;-61
2022/01/05 00:20:57;;;;;;;5.97;3.44;;;;;;;;;;362501;146;865020;-60
2022/01/05 00:21:59;;;;;;;6.87;4.13;;;;;;;;;;361170;147;864857;-61
2022/01/05 00:23:00;;;;;;;6.48;3.62;;;;;;;;;;360002;147;857264;-61
2022/01/05 00:24:02;;;;;;;10.99;4.36;;;;;;;;;;362725;147;858517;-61
2022/01/05 00:25:05;;;;;;;6.30;4.17;;;;;;;;;;364457;147;865652;-60
2022/01/05 00:26:06;;;;;;;6.00;3.91;;;;;;;;;;361036;147;858162;-61
2022/01/05 00:27:08;;;;;;;6.74;4.12;;;;;;;;;;360656;146;865784;-61
2022/01/05 00:28:09;;;;;;;7.89;3.70;;;;;;;;;;361577;146;857721;-61
2022/01/05 00:29:11;;;;;;;8.06;4.72;;;;;;;;;;362437;147;857156;-61
2022/01/05 00:42:06;;;;;;;4.27;3.18;;;;;;;5.31;77.95;97997.95;367562;141;880384;-62
2022/01/05 00:43:08;;;;;;;7.57;3.15;;;;;;;5.21;77.93;98008.38;359799;148;857210;-63
2022/01/05 00:44:09;;;;;;;7.61;3.75;;;;;;;5.22;77.90;98001.52;348673;150;857388;-63
2022/01/05 00:45:11;;;;;;;4.90;3.01;;;;;;;5.24;77.95;98004.89;344489;153;864809;-62
2022/01/05 00:46:14;;;;;;;7.91;3.18;;;;;;;5.27;77.91;98004.84;354102;147;865180;-63
2022/01/05 00:47:16;;;;;;;5.75;3.41;;;;;;;5.34;77.81;97997.89;360931;147;863658;-62
2022/01/05 00:48:17;;;;;;;5.97;3.38;;;;;;;;;;359462;147;865358;-62
2022/01/05 00:49:19;;;;;;;5.96;3.33;;;;;;;;;;357672;149;859524;-62
2022/01/05 01:02:05;;;;;;;7.68;3.53;;;;;;;5.68;76.96;97980.14;373349;141;874993;-63
2022/01/05 01:03:07;;;;;;;4.16;3.07;;;;;;;5.58;76.88;97978.63;360527;144;858992;-66
2022/01/05 01:04:09;;;;;;;5.04;2.94;;;;;;;5.56;76.85;97980.38;361236;147;857271;-65
2022/01/05 01:05:13;;;;;;;7.40;3.88;;;;;;;5.56;76.91;97983.78;363484;145;864867;-65
2022/01/05 01:06:15;;;;;;;5.07;2.84;;;;;;;5.58;76.97;97973.50;363053;145;865532;-64
2022/01/05 01:07:16;;;;;;;4.85;2.95;;;;;;;5.63;76.86;97968.25;363521;147;857130;-63
2022/01/05 01:08:18;;;;;;;5.97;3.40;;;;;;;5.68;76.79;97959.59;360552;145;857235;-64
2022/01/05 01:09:20;;;;;;;5.24;3.06;;;;;;;5.76;76.74;97956.03;364212;144;857301;-63
2022/01/05 01:10:22;;;;;;;3.75;2.29;;;;;;;5.78;76.50;97957.67;362153;145;864913;-65
2022/01/05 01:11:24;;;;;;;6.02;2.85;;;;;;;5.91;76.45;97955.70;363852;147;858747;-65
2022/01/05 01:12:26;;;;;;;5.35;2.63;;;;;;;5.97;76.11;97958.14;362809;144;865467;-64
2022/01/05 01:13:28;;;;;;;5.47;2.73;;;;;;;6.06;75.87;97940.88;362840;144;857357;-64
2022/01/05 01:14:30;;;;;;;4.79;2.74;;;;;;;6.14;75.68;97947.55;367917;145;858309;-63
2022/01/05 01:15:32;;;;;;;5.64;2.97;;;;;;;;;;362516;144;857310;-65
2022/01/05 01:16:33;;;;;;;6.34;3.66;;;;;;;;;;362759;145;865306;-65
2022/01/05 01:17:35;;;;;;;7.76;3.70;;;;;;;;;;362878;145;857464;-64
2022/01/05 01:18:36;;;;;;;6.46;3.08;;;;;;;;;;359688;144;863782;-64
2022/01/05 01:19:38;;;;;;;4.73;3.11;;;;;;;;;;360815;145;860687;-64
2022/01/05 01:20:39;;;;;;;7.26;3.61;;;;;;;;;;363449;145;863790;-64
2022/01/05 01:21:42;;;;;;;8.53;3.39;;;;;;;27.68;0.00;82998.77;364677;147;864826;-63
2022/01/05 01:22:44;;;;;;;6.63;3.92;;;;;;;;;;363267;145;858054;-65
2022/01/05 01:23:55;;;;;;;9.83;3.52;;;;;;;;;;362296;146;859003;-64
2022/01/05 01:24:49;;;;;;;5.53;3.57;;;;;;;;;;362682;145;858660;-66
2022/01/05 01:25:51;;;;;;;5.20;3.35;;;;;;;;;;359863;145;855963;-66
2022/01/05 01:26:52;;;;;;;6.63;3.80;;;;;;;;;;363215;144;860939;-65
2022/01/05 01:27:54;;;;;;;8.12;4.00;;;;;;;;;;360807;145;863686;-66
2022/01/05 01:28:56;;;;;;;6.55;3.89;;;;;;;;;;359714;147;856787;-66
2022/01/05 01:29:57;;;;;;;7.75;4.44;;;;;;;;;;362381;144;864295;-64
2022/01/05 01:30:59;;;;;;;5.57;3.31;;;;;;;;;;362845;147;856622;-64
2022/01/05 01:32:01;;;;;;;5.29;3.77;;;;;;;;;;364297;145;863946;-65
2022/01/05 01:33:02;;;;;;;7.64;3.94;;;;;;;;;;362637;147;861517;-64
2022/01/05 01:34:04;;;;;;;6.55;4.08;;;;;;;;;;361823;145;863566;-65
2022/01/05 01:35:06;;;;;;;7.38;3.74;;;;;;;;;;363743;147;864080;-65
2022/01/05 01:36:07;;;;;;;7.47;4.00;;;;;;;;;;363830;147;855971;-65
2022/01/05 01:37:09;;;;;;;5.71;3.49;;;;;;;;;;360996;145;856101;-64
2022/01/05 01:38:10;;;;;;;7.49;3.88;;;;;;;;;;362159;147;856564;-64
2022/01/05 01:39:12;;;;;;;6.59;3.51;;;;;;;;;;365219;144;856228;-65
2022/01/05 01:40:14;;;;;;;8.61;4.11;;;;;;;;;;363790;144;856639;-65
2022/01/05 01:41:16;;;;;;;6.47;3.63;;;;;;;;;;364032;144;863536;-65
2022/01/05 01:44:11;;;;;;;8.92;4.22;;;;;;;5.84;76.25;97892.51;371058;142;880335;-61
2022/01/05 01:45:13;;;;;;;6.81;3.43;;;;;;;5.75;76.36;97902.98;360818;146;858445;-61
2022/01/05 01:46:15;;;;;;;9.05;3.83;;;;;;;5.73;76.49;97891.89;358427;147;857739;-61
2022/01/05 01:47:17;;;;;;;5.61;2.80;;;;;;;5.75;76.50;97896.11;362062;147;859292;-61
2022/01/05 01:48:18;;;;;;;4.13;2.62;;;;;;;;;;363464;146;857649;-61
2022/01/05 01:49:20;;;;;;;9.90;3.96;;;;;;;;;;364844;147;864751;-61
2022/01/05 01:50:22;;;;;;;7.17;3.15;;;;;;;;;;364986;147;864873;-61
2022/01/05 01:51:24;;;;;;;6.67;3.64;;;;;;;;;;363608;146;857419;-62
2022/01/05 01:52:25;;;;;;;5.96;3.94;;;;;;;;;;352491;150;864874;-63
2022/01/05 01:53:27;;;;;;;7.36;4.08;;;;;;;;;;364174;148;857185;-62
2022/01/05 01:54:28;;;;;;;9.01;4.51;;;;;;;;;;363817;147;857925;-63
2022/01/05 01:55:30;;;;;;;7.16;3.95;;;;;;;;;;362516;146;859279;-62
2022/01/05 01:56:32;;;;;;;4.58;3.15;;;;;;;;;;364242;147;858978;-62
2022/01/05 01:57:34;;;;;;;5.30;3.45;;;;;;;;;;365453;146;865788;-62
2022/01/05 01:58:35;;;;;;;6.27;4.09;;;;;;;;;;364845;146;859670;-62
2022/01/05 01:59:37;;;;;;;5.97;2.97;;;;;;;;;;363259;147;857334;-62
2022/01/05 02:00:39;;;;;;;6.79;4.23;;;;;;;;;;366029;147;858039;-62
2022/01/05 02:01:41;;;;;;;5.45;3.31;;;;;;;;;;359722;147;865361;-63
2022/01/05 02:02:43;;;;;;;5.62;3.67;;;;;;;;;;357841;149;859051;-63
2022/01/05 02:03:45;;;;;;;8.41;4.43;;;;;;;;;;358758;150;865077;-62
2022/01/05 02:04:47;;;;;;;8.88;3.96;;;;;;;;;;356134;148;865997;-62
2022/01/05 02:05:48;;;;;;;7.56;3.44;;;;;;;;;;358706;150;857249;-62
2022/01/05 02:06:51;;;;;;;7.26;4.23;;;;;;;;;;354005;150;857277;-62
2022/01/05 02:07:52;;;;;;;8.22;4.07;;;;;;;;;;355412;147;865949;-62
2022/01/05 02:08:54;;;;;;;7.69;3.49;;;;;;;;;;358668;147;857354;-62
2022/01/05 02:09:55;;;;;;;6.61;3.39;;;;;;;;;;354805;147;858303;-62
2022/01/05 02:10:57;;;;;;;6.60;3.75;;;;;;;;;;352885;150;861617;-62
2022/01/05 02:11:59;;;;;;;6.81;4.05;;;;;;;;;;355976;148;859342;-61
2022/01/05 02:13:00;;;;;;;6.39;4.44;;;;;;;;;;355901;149;857481;-61
2022/01/05 02:14:02;;;;;;;6.79;4.63;;;;;;;;;;354686;150;865320;-61
2022/01/05 02:15:04;;;;;;;8.19;4.16;;;;;;;;;;356445;148;866050;-61
2022/01/05 02:16:06;;;;;;;5.79;3.33;;;;;;;;;;356258;148;860115;-61
2022/01/05 02:17:16;;;;;;;6.09;4.13;;;;;;;;;;356749;147;859130;-61
2022/01/05 02:18:58;;;;;;;6.11;3.68;;;;;;;;;;353684;147;857341;-61
2022/01/05 02:19:24;;;;;;;6.22;3.54;;;;;;;;;;355940;149;859782;-61
2022/01/05 02:20:26;;;;;;;8.84;4.41;;;;;;;;;;352863;150;858189;-62
2022/01/05 02:21:28;;;;;;;8.93;4.75;;;;;;;;;;358399;147;864760;-61
2022/01/05 02:22:30;;;;;;;8.07;4.19;;;;;;;;;;357260;147;857216;-62
2022/01/05 02:23:32;;;;;;;5.33;3.78;;;;;;;;;;354313;148;857739;-61
2022/01/05 02:24:33;;;;;;;5.99;3.32;;;;;;;;;;358526;147;857426;-62
2022/01/05 02:25:35;;;;;;;6.06;3.54;;;;;;;;;;356907;148;857322;-61
2022/01/05 02:26:37;;;;;;;7.14;3.96;;;;;;;;;;355521;147;858719;-61
2022/01/05 02:27:40;;;;;;;8.65;4.39;;;;;;;;;;357738;150;866498;-61
2022/01/05 02:28:41;;;;;;;6.58;3.84;;;;;;;;;;352328;147;859425;-61
2022/01/05 02:29:45;;;;;;;7.41;4.11;;;;;;;;;;356112;149;857814;-61
2022/01/05 02:30:47;;;;;;;6.26;3.31;;;;;;;;;;357357;149;864694;-61
2022/01/05 02:31:48;;;;;;;7.10;3.92;;;;;;;;;;357927;148;865426;-61
2022/01/05 02:32:50;;;;;;;6.98;4.75;;;;;;;;;;357971;148;862259;-61
2022/01/05 02:33:51;;;;;;;7.36;4.28;;;;;;;;;;358704;147;857738;-60
2022/01/05 02:34:53;;;;;;;6.65;4.11;;;;;;;;;;357564;148;857813;-61
2022/01/05 02:35:54;;;;;;;5.46;3.39;;;;;;;;;;360542;147;857426;-61
2022/01/05 02:36:56;;;;;;;7.59;4.91;;;;;;;;;;357201;147;866585;-60
2022/01/05 02:37:57;;;;;;;7.78;4.51;;;;;;;;;;355801;147;864240;-61
2022/01/05 02:38:59;;;;;;;6.02;4.39;;;;;;;;;;361684;147;858189;-61
2022/01/05 02:40:01;;;;;;;3.91;3.09;;;;;;;;;;358704;147;859938;-61
2022/01/05 02:41:12;;;;;;;8.54;5.09;;;;;;;;;;361939;147;858945;-61
2022/01/05 02:42:12;;;;;;;8.76;4.26;;;;;;;;;;359724;147;858244;-62
2022/01/05 02:43:14;;;;;;;8.21;4.46;;;;;;;;;;357427;147;857375;-62
2022/01/05 02:44:15;;;;;;;6.36;3.75;;;;;;;;;;358026;149;857254;-62
2022/01/05 02:45:17;;;;;;;9.25;4.98;;;;;;;;;;357964;150;866837;-62
2022/01/05 02:46:20;;;;;;;8.21;3.69;;;;;;;;;;358150;147;866820;-60
2022/01/05 02:47:21;;;;;;;8.59;5.04;;;;;;;;;;357668;147;857775;-60
2022/01/05 02:48:23;;;;;;;5.81;3.56;;;;;;;;;;354406;148;860213;-60
2022/01/05 02:49:24;;;;;;;7.06;3.93;;;;;;;;;;356656;150;860587;-60
2022/01/05 02:50:26;;;;;;;5.57;3.30;;;;;;;;;;357532;147;858479;-61
2022/01/05 02:51:28;;;;;;;6.76;3.68;;;;;;;;;;361987;147;864794;-60
2022/01/05 02:52:29;;;;;;;6.93;4.02;;;;;;;;;;358936;147;857638;-60
2022/01/05 02:53:31;;;;;;;7.23;3.55;;;;;;;;;;356941;148;857404;-60
2022/01/05 02:54:33;;;;;;;7.36;4.16;;;;;;;;;;357526;147;857316;-60
2022/01/05 02:55:34;;;;;;;5.39;2.81;;;;;;;;;;357871;148;857222;-60
2022/01/05 02:56:36;;;;;;;6.72;3.35;;;;;;;;;;355368;150;857288;-60
2022/01/05 02:57:38;;;;;;;5.80;3.43;;;;;;;;;;356784;147;859810;-60
2022/01/05 02:58:39;;;;;;;9.46;4.92;;;;;;;;;;355516;147;864768;-61
2022/01/05 02:59:41;;;;;;;6.68;4.49;;;;;;;;;;358507;148;864836;-61
2022/01/05 03:00:43;;;;;;;7.40;4.33;;;;;;;;;;357135;147;864909;-61
2022/01/05 03:01:44;;;;;;;6.81;4.65;;;;;;;;;;356339;148;864926;-61
2022/01/05 03:02:46;;;;;;;9.45;5.06;;;;;;;;;;355763;147;857467;-61
2022/01/05 03:03:48;;;;;;;9.95;4.36;;;;;;;;;;358348;150;865324;-61
2022/01/05 03:04:49;;;;;;;7.31;4.51;;;;;;;;;;358268;149;862539;-61
2022/01/05 03:05:51;;;;;;;8.21;5.02;;;;;;;;;;354138;150;857558;-60
2022/01/05 03:06:53;;;;;;;10.41;4.91;;;;;;;;;;358284;148;864986;-60
2022/01/05 03:07:54;;;;;;;8.00;4.55;;;;;;;;;;358774;147;865001;-60
2022/01/05 03:08:56;;;;;;;9.75;5.32;;;;;;;;;;355794;149;859085;-61
2022/01/05 03:09:57;;;;;;;8.64;5.02;;;;;;;;;;354775;148;865242;-63
2022/01/05 03:10:59;;;;;;;5.68;3.99;;;;;;;;;;356079;147;858387;-67
2022/01/05 03:12:01;;;;;;;10.42;3.75;;;;;;;;;;356391;147;864710;-60
2022/01/05 03:13:03;;;;;;;7.81;3.73;;;;;;;;;;357021;149;858051;-62
2022/01/05 03:14:04;;;;;;;9.19;4.38;;;;;;;;;;359188;150;865323;-62
2022/01/05 03:15:06;;;;;;;8.39;4.64;;;;;;;;;;356261;148;864881;-62
2022/01/05 03:16:08;;;;;;;8.53;4.67;;;;;;;;;;360643;147;857191;-62
2022/01/05 03:17:10;;;;;;;7.51;4.31;;;;;;;;;;357157;147;858743;-62
2022/01/05 03:18:11;;;;;;;9.29;5.11;;;;;;;;;;356648;147;857966;-62
2022/01/05 03:19:13;;;;;;;4.64;4.04;;;;;;;;;;357670;147;857087;-61
2022/01/05 03:20:17;;;;;;;8.94;4.63;;;;;;;;;;357700;147;857289;-62
2022/01/05 03:21:18;;;;;;;7.11;3.96;;;;;;;;;;361725;147;857158;-60
2022/01/05 03:22:20;;;;;;;6.29;4.02;;;;;;;;;;358334;147;859238;-59
2022/01/05 03:23:22;;;;;;;10.49;4.94;;;;;;;;;;358907;147;857258;-61
2022/01/05 03:24:23;;;;;;;7.80;4.37;;;;;;;;;;359187;150;866828;-61
2022/01/05 03:25:25;;;;;;;6.61;4.30;;;;;;;;;;358052;147;866609;-61
2022/01/05 03:26:27;;;;;;;9.42;4.59;;;;;;;;;;356875;149;866109;-63
2022/01/05 03:27:28;;;;;;;6.31;3.97;;;;;;;;;;357826;149;865760;-61
2022/01/05 03:28:30;;;;;;;9.65;4.47;;;;;;;;;;356185;148;866462;-60
2022/01/05 03:29:31;;;;;;;9.04;4.39;;;;;;;;;;355951;149;859269;-61
2022/01/05 03:30:33;;;;;;;8.31;4.16;;;;;;;;;;356299;147;857834;-61
2022/01/05 03:31:35;;;;;;;6.41;4.47;;;;;;;;;;362454;147;859040;-61
2022/01/05 03:32:47;;;;;;;7.98;4.56;;;;;;;;;;358270;147;857295;-61
2022/01/05 03:33:40;;;;;;;10.38;4.41;;;;;;;;;;358331;147;857312;-60
2022/01/05 03:34:44;;;;;;;6.44;4.23;;;;;;;;;;358132;150;857214;-61
2022/01/05 03:35:45;;;;;;;6.37;3.83;;;;;;;;;;354775;147;863208;-61
2022/01/05 03:36:47;;;;;;;6.89;3.79;;;;;;;;;;356670;149;859593;-61
2022/01/05 03:37:48;;;;;;;6.05;3.66;;;;;;;;;;356961;150;864762;-61
2022/01/05 03:38:50;;;;;;;8.13;4.08;;;;;;;;;;357087;148;864737;-61
2022/01/05 03:39:51;;;;;;;7.65;4.46;;;;;;;;;;356325;147;858708;-60
2022/01/05 03:40:53;;;;;;;6.41;3.99;;;;;;;;;;358161;150;866588;-61
2022/01/05 03:41:55;;;;;;;6.81;4.89;;;;;;;;;;363392;147;865833;-60
2022/01/05 03:42:57;;;;;;;8.37;4.07;;;;;;;;;;359138;147;865370;-61
2022/01/05 03:43:59;;;;;;;6.66;4.02;;;;;;;;;;356837;147;857404;-61
2022/01/05 03:45:00;;;;;;;7.16;3.98;;;;;;;;;;359097;147;864921;-61
2022/01/05 03:46:02;;;;;;;7.29;3.80;;;;;;;;;;358195;148;857498;-61
2022/01/05 03:47:04;;;;;;;6.16;4.04;;;;;;;;;;357165;148;864840;-61
2022/01/05 03:48:06;;;;;;;6.74;4.21;;;;;;;;;;356966;147;858195;-60
2022/01/05 03:49:08;;;;;;;7.21;3.93;;;;;;;;;;357671;150;858721;-58
2022/01/05 03:50:09;;;;;;;6.76;4.13;;;;;;;;;;351608;151;858851;-62
2022/01/05 03:51:11;;;;;;;6.69;4.19;;;;;;;;;;354619;149;864833;-61
2022/01/05 03:52:12;;;;;;;7.71;4.22;;;;;;;;;;357851;149;861517;-58
2022/01/05 03:53:14;;;;;;;5.91;3.59;;;;;;;;;;358953;148;858326;-61
2022/01/05 03:54:16;;;;;;;5.49;3.52;;;;;;;;;;355275;149;857271;-62
2022/01/05 03:55:17;;;;;;;6.05;4.01;;;;;;;;;;358873;150;866100;-61
2022/01/05 03:56:19;;;;;;;5.52;3.15;;;;;;;;;;359154;148;865779;-61
2022/01/05 03:57:21;;;;;;;4.24;2.71;;;;;;;;;;357610;148;859049;-62
2022/01/05 03:58:23;;;;;;;7.14;3.62;;;;;;;;;;355116;148;866077;-62
2022/01/05 03:59:24;;;;;;;5.98;3.51;;;;;;;;;;359134;149;859226;-61
2022/01/05 04:00:28;;;;;;;7.54;4.28;;;;;;;;;;356660;147;858973;-62
2022/01/05 04:01:29;;;;;;;7.66;4.22;;;;;;;;;;358062;147;865898;-61
2022/01/05 04:02:31;;;;;;;6.48;3.97;;;;;;;;;;356130;148;857301;-61
2022/01/05 04:03:33;;;;;;;7.69;3.76;;;;;;;;;;358450;149;864825;-63
2022/01/05 04:04:34;;;;;;;5.88;3.61;;;;;;;;;;355850;149;864931;-63
2022/01/05 04:05:36;;;;;;;7.22;3.43;;;;;;;;;;358362;147;857225;-61
2022/01/05 04:06:37;;;;;;;4.56;2.91;;;;;;;;;;364905;147;857173;-60
2022/01/05 04:07:39;;;;;;;6.05;3.78;;;;;;;;;;356249;147;856498;-61
2022/01/05 04:08:40;;;;;;;4.59;3.56;;;;;;;;;;357043;150;859154;-61
2022/01/05 04:09:42;;;;;;;6.81;3.85;;;;;;;;;;358508;150;866440;-61
2022/01/05 04:10:44;;;;;;;8.19;4.24;;;;;;;;;;357361;147;858922;-61
2022/01/05 04:11:45;;;;;;;7.22;4.66;;;;;;;;;;356392;147;866196;-61
2022/01/05 04:12:48;;;;;;;5.99;4.47;;;;;;;;;;357951;147;859570;-62
2022/01/05 04:13:49;;;;;;;6.02;3.39;;;;;;;;;;358851;148;857988;-62
2022/01/05 04:14:51;;;;;;;7.79;3.97;;;;;;;;;;357728;147;863385;-61
2022/01/05 04:15:52;;;;;;;6.49;3.86;;;;;;;;;;358987;147;865031;-64
2022/01/05 04:16:54;;;;;;;6.16;3.95;;;;;;;;;;355061;147;864850;-60
2022/01/05 04:17:55;;;;;;;6.86;4.18;;;;;;;;;;357385;147;859879;-62
2022/01/05 04:18:57;;;;;;;9.14;3.95;;;;;;;;;;358428;147;860004;-61
2022/01/05 04:19:59;;;;;;;5.14;3.57;;;;;;;;;;357851;147;857386;-61
2022/01/05 04:21:00;;;;;;;13.10;5.28;;;;;;;;;;354775;147;865855;-60
2022/01/05 04:22:02;;;;;;;4.72;3.34;;;;;;;;;;356615;148;863499;-61
2022/01/05 04:23:03;;;;;;;6.17;3.48;;;;;;;;;;357960;149;864839;-63
2022/01/05 04:24:05;;;;;;;7.00;3.73;;;;;;;;;;356730;149;865289;-62
2022/01/05 04:37:06;;;;;;;7.35;3.94;;;;;;;6.63;75.54;97839.28;374945;142;881392;-62
2022/01/05 04:38:07;;;;;;;5.81;2.67;;;;;;;;;;365946;144;858969;-61
2022/01/05 04:39:09;;;;;;;7.20;2.80;;;;;;;;;;369790;144;859206;-63
2022/01/05 04:40:11;;;;;;;3.59;2.42;;;;;;;;;;366899;144;858251;-62
2022/01/05 04:41:13;;;;;;;5.43;3.06;;;;;;;;;;366048;144;857161;-64
2022/01/05 04:42:15;;;;;;;5.59;2.67;;;;;;;;;;364262;146;858427;-64
2022/01/05 04:43:16;;;;;;;5.89;3.67;;;;;;;;;;363214;145;864701;-62
2022/01/05 04:44:18;;;;;;;6.17;3.78;;;;;;;;;;361088;146;859051;-62
2022/01/05 04:45:19;;;;;;;10.20;4.74;;;;;;;;;;365766;144;857316;-61
2022/01/05 04:46:22;;;;;;;8.51;4.51;;;;;;;;;;362829;145;858387;-61
2022/01/05 04:47:24;;;;;;;7.27;4.47;;;;;;;;;;369004;145;857182;-63
2022/01/05 04:48:26;;;;;;;7.86;4.55;;;;;;;;;;364118;144;857127;-64
2022/01/05 04:49:27;;;;;;;6.51;3.71;;;;;;;;;;363335;146;865820;-63
2022/01/05 04:50:29;;;;;;;6.25;4.19;;;;;;;;;;364288;145;857130;-62
2022/01/05 04:51:31;;;;;;;5.54;3.43;;;;;;;;;;364384;146;861987;-66
2022/01/05 04:52:32;;;;;;;6.11;4.33;;;;;;;;;;362002;146;858987;-65
2022/01/05 04:53:34;;;;;;;5.09;3.46;;;;;;;;;;363143;145;857435;-65
2022/01/05 04:54:35;;;;;;;5.66;3.91;;;;;;;;;;363361;146;858277;-66
2022/01/05 04:55:38;;;;;;;9.39;3.84;;;;;;;;;;363495;148;857208;-63
2022/01/05 04:56:40;;;;;;;7.72;4.60;;;;;;;;;;363332;145;866518;-64
2022/01/05 04:57:41;;;;;;;6.96;4.34;;;;;;;;;;364078;145;857177;-65
2022/01/05 04:58:43;;;;;;;6.91;4.30;;;;;;;;;;362399;146;857160;-63
2022/01/05 04:59:44;;;;;;;9.46;3.63;;;;;;;;;;361399;145;866454;-67
2022/01/05 05:00:46;;;;;;;9.84;4.80;;;;;;;;;;364535;144;859062;-65
2022/01/05 05:01:47;;;;;;;6.29;4.12;;;;;;;;;;364270;144;865037;-68
2022/01/05 05:02:49;;;;;;;6.69;3.88;;;;;;;;;;361438;146;863188;-63
2022/01/05 05:03:51;;;;;;;11.36;4.80;;;;;;;;;;363721;145;865162;-65
2022/01/05 05:04:52;;;;;;;8.32;4.12;;;;;;;;;;364642;145;867898;-64
2022/01/05 05:05:54;;;;;;;6.24;3.89;;;;;;;;;;366550;146;858159;-66
2022/01/05 05:06:55;;;;;;;5.11;3.53;;;;;;;;;;362132;144;857453;-67
2022/01/05 05:08:00;;;;;;;6.86;4.25;;;;;;;;;;366247;144;865003;-66
2022/01/05 05:09:02;;;;;;;7.42;4.07;;;;;;;;;;362837;146;858280;-66
2022/01/05 05:10:04;;;;;;;6.25;4.52;;;;;;;;;;362654;145;866435;-64
2022/01/05 05:11:05;;;;;;;6.31;4.19;;;;;;;;;;363000;144;864755;-66
2022/01/05 05:12:08;;;;;;;6.71;3.83;;;;;;;;;;363358;146;858576;-66
2022/01/05 05:23:21;;;;;;;6.36;3.68;;;;;;;7.04;73.66;97833.92;373642;142;881242;-66
2022/01/05 05:24:23;;;;;;;4.38;2.45;;;;;;;6.91;73.40;97835.14;365010;147;858392;-65
2022/01/05 05:25:25;;;;;;;4.01;2.66;;;;;;;6.95;73.38;97829.89;362828;145;857202;-65
2022/01/05 05:26:27;;;;;;;4.64;2.31;;;;;;;7.00;73.20;97837.46;361496;147;864785;-65
2022/01/05 05:27:29;;;;;;;5.33;2.94;;;;;;;7.04;72.92;97840.81;360394;147;858422;-66
2022/01/05 05:28:30;;;;;;;4.04;2.67;;;;;;;7.09;72.85;97842.36;364959;145;866736;-66
2022/01/05 05:29:32;;;;;;;4.43;2.63;;;;;;;7.19;72.58;97853.25;361951;146;865591;-64
2022/01/05 05:30:35;;;;;;;5.13;3.04;;;;;;;7.31;72.39;97852.05;360655;147;858950;-66
2022/01/05 05:31:36;;;;;;;6.77;2.77;;;;;;;7.39;71.95;97862.97;363454;146;857700;-66
2022/01/05 05:32:38;;;;;;;4.60;2.63;;;;;;;7.51;71.81;97863.53;364435;145;858932;-66
2022/01/05 05:33:40;;;;;;;6.10;2.60;;;;;;;;;;362697;146;859098;-66
2022/01/05 05:34:41;;;;;;;3.97;2.62;;;;;;;;;;365067;146;866842;-66
2022/01/05 05:35:43;;;;;;;3.89;2.14;;;;;;;;;;362098;145;865121;-66
2022/01/05 05:36:44;;;;;;;4.34;2.27;;;;;;;;;;361869;147;857190;-66
2022/01/05 05:37:46;;;;;;;5.08;2.43;;;;;;;;;;364444;146;857299;-65
2022/01/05 05:38:47;;;;;;;4.06;2.89;;;;;;;;;;363504;144;864925;-62
2022/01/05 05:39:49;;;;;;;7.04;3.41;;;;;;;;;;362924;147;857249;-65
2022/01/05 05:40:51;;;;;;;5.44;3.11;;;;;;;;;;366608;146;857285;-66
2022/01/05 05:41:52;;;;;;;6.27;3.58;;;;;;;;;;363871;146;864755;-65
2022/01/05 05:42:54;;;;;;;6.92;2.69;;;;;;;;;;358178;149;866659;-63
2022/01/05 05:43:56;;;;;;;4.85;2.56;;;;;;;;;;357015;147;861175;-64
2022/01/05 05:44:57;;;;;;;4.99;2.84;;;;;;;;;;359062;147;866052;-63
2022/01/05 05:45:59;;;;;;;3.88;2.89;;;;;;;;;;359749;147;858062;-64
2022/01/05 05:47:01;;;;;;;5.74;3.20;;;;;;;;;;356875;147;864812;-63
2022/01/05 05:48:05;;;;;;;6.31;2.81;;;;;;;;;;356216;147;866371;-62
2022/01/05 05:49:06;;;;;;;3.38;2.29;;;;;;;;;;356575;147;860116;-63
2022/01/05 05:50:09;;;;;;;5.17;3.47;;;;;;;;;;357172;148;866413;-64
2022/01/05 05:51:11;;;;;;;4.35;2.91;;;;;;;;;;355813;150;858357;-65
2022/01/05 05:52:13;;;;;;;4.88;3.02;;;;;;;;;;355513;148;859089;-63
2022/01/05 05:53:15;;;;;;;4.14;2.39;;;;;;;;;;358407;147;864821;-63
2022/01/05 05:54:16;;;;;;;5.33;3.25;;;;;;;;;;357613;147;867008;-65
2022/01/05 05:55:18;;;;;;;5.45;3.06;;;;;;;;;;358687;147;858308;-64
2022/01/05 05:56:21;;;;;;;4.91;3.02;;;;;;;;;;356864;148;860206;-63
2022/01/05 05:57:23;;;;;;;6.86;3.46;;;;;;;;;;359886;147;859375;-63
2022/01/05 05:58:24;;;;;;;4.98;3.20;;;;;;;;;;363251;147;858618;-64
2022/01/05 05:59:26;;;;;;;9.23;2.90;;;;;;;;;;359261;147;866163;-64
2022/01/05 06:00:29;;;;;;;4.96;3.11;;;;;;;;;;358818;148;858949;-64
2022/01/05 06:01:31;;;;;;;7.58;3.71;;;;;;;;;;359825;147;857289;-64
2022/01/05 06:02:33;;;;;;;7.15;3.31;;;;;;;;;;358932;147;864914;-63
2022/01/05 06:03:34;;;;;;;5.76;3.24;;;;;;;;;;357393;147;857309;-63
2022/01/05 06:04:36;;;;;;;4.21;3.10;;;;;;;;;;357414;147;859071;-63
2022/01/05 06:05:38;;;;;;;5.55;3.75;;;;;;;;;;358045;148;857188;-66
2022/01/05 06:06:39;;;;;;;4.56;2.99;;;;;;;;;;358348;147;858831;-64
2022/01/05 06:07:41;;;;;;;6.18;3.69;;;;;;;;;;358721;148;863529;-62
2022/01/05 06:08:42;;;;;;;6.34;3.66;;;;;;;;;;358710;148;857212;-63
2022/01/05 06:09:44;;;;;;;5.51;3.29;;;;;;;;;;356176;148;857336;-64
2022/01/05 06:10:46;;;;;;;5.44;3.41;;;;;;;;;;358456;148;866544;-63
2022/01/05 06:11:47;;;;;;;5.50;3.37;;;;;;;;;;358072;147;866079;-62
2022/01/05 06:12:49;;;;;;;3.94;2.66;;;;;;;;;;358603;147;858877;-63
2022/01/05 06:13:52;;;;;;;5.06;3.10;;;;;;;;;;357257;147;865660;-63
2022/01/05 06:14:54;;;;;;;4.60;2.77;;;;;;;;;;358576;147;864938;-63
2022/01/05 06:15:56;;;;;;;5.24;3.19;;;;;;;27.68;0.00;69262.39;358126;150;858801;-64
2022/01/05 06:16:57;;;;;;;4.90;2.25;;;;;;;;;;359763;147;859939;-63
2022/01/05 06:17:59;;;;;;;6.04;3.47;;;;;;;;;;359547;147;857305;-63
2022/01/05 06:19:01;;;;;;;6.61;3.95;;;;;;;;;;356913;148;857315;-63
2022/01/05 06:20:04;;;;;;;8.16;3.18;;;;;;;;;;358730;147;857515;-63
2022/01/05 06:21:06;;;;;;;5.54;3.51;;;;;;;;;;357346;147;865322;-63
2022/01/05 06:22:08;;;;;;;8.06;3.78;;;;;;;;;;358228;147;864713;-63
2022/01/05 06:23:09;;;;;;;7.09;3.63;;;;;;;;;;359151;150;866468;-66
2022/01/05 06:24:11;;;;;;;6.24;3.54;;;;;;;;;;357640;147;866484;-63
2022/01/05 06:25:13;;;;;;;5.01;2.72;;;;;;;;;;357063;147;859701;-64
2022/01/05 06:26:15;;;;;;;6.21;3.34;;;;;;;;;;359219;148;857234;-63
2022/01/05 06:27:17;;;;;;;8.40;3.55;;;;;;;;;;358150;147;857338;-63
2022/01/05 06:28:18;;;;;;;6.16;3.56;;;;;;;;;;358425;148;865154;-65
2022/01/05 06:29:20;;;;;;;4.71;3.25;;;;;;;;;;356572;148;865939;-65
2022/01/05 06:30:22;;;;;;;8.39;3.85;;;;;;;;;;358650;148;864790;-64
2022/01/05 06:31:24;;;;;;;5.35;3.36;;;;;;;;;;356961;147;857776;-64
2022/01/05 06:32:26;;;;;;;5.11;3.44;;;;;;;;;;359808;147;857345;-67
2022/01/05 06:33:27;;;;;;;4.58;2.71;;;;;;;;;;358419;150;866519;-63
2022/01/05 06:34:29;;;;;;;6.55;3.52;;;;;;;;;;350821;151;859071;-64
2022/01/05 06:35:30;;;;;;;5.44;3.20;;;;;;;;;;350485;151;859144;-65
2022/01/05 06:36:32;;;;;;;4.52;2.99;;;;;;;;;;358523;147;857285;-64
2022/01/05 06:37:34;;;;;;;10.41;2.66;;;;;;;;;;357904;147;856044;-65
2022/01/05 06:38:35;;;;;;;7.07;2.96;;;;;;;;;;357810;148;866543;-65
2022/01/05 06:39:37;;;;;;;6.11;3.92;;;;;;;;;;357905;147;863633;-65
2022/01/05 06:40:39;;;;;;;5.41;3.24;;;;;;;;;;356672;148;856561;-65
2022/01/05 06:41:40;;;;;;;7.66;3.34;;;;;;;;;;358409;148;864090;-66
2022/01/05 06:44:37;;;;;;;6.31;2.84;;;;;;;7.81;70.70;97946.77;372046;142;882059;-64